Time;durP1;ratioP1;P1;durP2;ratioP2;P2;SDS_P1;SDS_P2;PMS_P1;PMS_P2;Temp;Humidity;BMP_temperature;BMP_pressure;BME280_temperature;BME280_humidity;BME280_pressure;Samples;Min_cycle;Max_cycle;Signal;HPM_P1;HPM_P2
2022/12/01 00:00:37;;;;;;;7.80;3.88;;;6.00;99.90;;;;;;5010249;28;20428;-65
2022/12/01 00:03:03;;;;;;;8.10;3.95;;;6.00;99.90;;;;;;5000649;28;20030;-64
2022/12/01 00:05:28;;;;;;;6.45;3.70;;;6.00;99.90;;;;;;4987596;28;20091;-64
2022/12/01 00:07:56;;;;;;;4.65;3.05;;;6.00;99.90;;;;;;4999422;28;20034;-65
2022/12/01 00:10:24;;;;;;;6.43;3.70;;;6.00;99.90;;;;;;5000054;28;20053;-65
2022/12/01 00:12:54;;;;;;;8.43;3.90;;;6.00;99.90;;;;;;5008659;28;20037;-64
2022/12/01 00:15:20;;;;;;;7.40;4.15;;;6.00;99.90;;;;;;5008893;28;20041;-65
2022/12/01 00:17:47;;;;;;;6.45;3.83;;;6.00;99.90;;;;;;5005197;28;20974;-65
2022/12/01 00:20:14;;;;;;;7.15;3.42;;;6.00;99.90;;;;;;5006715;28;20030;-63
2022/12/01 00:22:44;;;;;;;7.65;3.85;;;6.00;99.90;;;;;;5001873;28;20026;-64
2022/12/01 00:25:10;;;;;;;6.35;3.92;;;6.10;99.90;;;;;;5008480;28;20890;-64
2022/12/01 00:27:36;;;;;;;7.85;4.00;;;6.00;99.90;;;;;;5005275;28;20106;-64
2022/12/01 00:30:02;;;;;;;7.57;3.95;;;6.00;99.90;;;;;;5003540;28;20079;-64
2022/12/01 00:32:29;;;;;;;5.38;3.58;;;6.10;99.90;;;;;;5002262;28;20424;-64
2022/12/01 00:34:54;;;;;;;6.43;3.58;;;6.00;99.90;;;;;;5002450;28;20014;-64
2022/12/01 00:37:20;;;;;;;6.88;3.60;;;6.00;99.90;;;;;;5002268;28;20026;-62
2022/12/01 00:39:46;;;;;;;6.10;3.95;;;6.00;99.90;;;;;;5009459;28;20087;-64
2022/12/01 00:42:11;;;;;;;10.85;4.47;;;6.00;99.90;;;;;;4997777;28;20035;-64
2022/12/01 00:44:37;;;;;;;8.30;3.90;;;6.00;99.90;;;;;;4997771;28;20034;-64
2022/12/01 00:47:02;;;;;;;6.70;3.83;;;6.00;99.90;;;;;;5004438;28;20033;-65
2022/12/01 00:49:28;;;;;;;5.72;3.90;;;6.00;99.90;;;;;;5008248;28;20025;-64
2022/12/01 00:51:53;;;;;;;8.00;4.40;;;6.00;99.90;;;;;;5008956;28;20215;-63
2022/12/01 00:54:19;;;;;;;7.07;4.30;;;6.00;99.90;;;;;;5008934;28;20048;-65
2022/12/01 00:56:44;;;;;;;7.00;3.55;;;6.00;99.90;;;;;;5008333;28;20101;-64
2022/12/01 00:59:10;;;;;;;6.07;3.97;;;6.00;99.90;;;;;;5001445;28;20105;-64
2022/12/01 01:01:36;;;;;;;6.25;3.88;;;6.00;99.90;;;;;;5002417;28;20026;-64
2022/12/01 01:04:02;;;;;;;8.68;5.00;;;6.00;99.90;;;;;;4990692;28;20510;-65
2022/12/01 01:06:28;;;;;;;7.85;4.18;;;6.00;99.90;;;;;;4999159;28;20036;-64
2022/12/01 01:08:54;;;;;;;9.63;4.32;;;6.00;99.90;;;;;;4989909;28;20525;-64
2022/12/01 01:11:19;;;;;;;9.88;4.45;;;6.00;99.90;;;;;;4996949;28;20034;-65
2022/12/01 01:13:51;;;;;;;6.95;4.78;;;6.00;99.90;;;;;;5075480;27;20504;-64
2022/12/01 01:16:20;;;;;;;7.65;4.88;;;6.10;99.90;;;;;;5055997;28;20061;-64
2022/12/01 01:18:47;;;;;;;8.40;4.65;;;6.10;99.90;;;;;;5055062;28;20025;-63
2022/12/01 01:21:16;;;;;;;7.13;4.38;;;6.10;99.90;;;;;;5066726;28;20029;-63
2022/12/01 01:23:42;;;;;;;12.32;5.55;;;6.10;99.90;;;;;;5052576;28;20033;-63
2022/12/01 01:26:13;;;;;;;10.07;4.93;;;6.10;99.90;;;;;;5061811;28;20079;-63
2022/12/01 01:28:40;;;;;;;8.23;4.75;;;6.10;99.90;;;;;;5058771;28;20379;-63
2022/12/01 01:31:07;;;;;;;10.25;4.45;;;6.10;99.90;;;;;;5053176;28;20510;-63
2022/12/01 01:33:33;;;;;;;11.95;6.43;;;6.10;99.90;;;;;;5069761;28;20040;-65
2022/12/01 01:35:59;;;;;;;12.50;5.95;;;6.10;99.90;;;;;;5055415;28;20087;-63
2022/12/01 01:38:26;;;;;;;9.55;5.10;;;6.10;99.90;;;;;;5056223;28;20548;-64
2022/12/01 01:40:51;;;;;;;9.50;5.25;;;6.10;99.90;;;;;;5068434;28;20060;-64
2022/12/01 01:43:36;;;;;;;10.40;5.50;;;6.10;99.90;;;;;;5063448;28;20063;-64
2022/12/01 01:46:04;;;;;;;12.07;5.60;;;6.10;99.90;;;;;;5068832;28;20347;-63
2022/12/01 01:48:30;;;;;;;11.75;5.88;;;6.10;99.90;;;;;;5069575;28;20028;-63
2022/12/01 01:50:55;;;;;;;11.20;5.68;;;6.10;99.90;;;;;;5067510;28;20152;-63
2022/12/01 01:53:22;;;;;;;9.48;5.95;;;6.20;99.90;;;;;;5053429;28;20078;-64
2022/12/01 01:55:48;;;;;;;11.75;6.68;;;6.20;99.90;;;;;;5058997;28;20037;-64
2022/12/01 01:58:14;;;;;;;11.73;6.30;;;6.20;99.90;;;;;;5060057;28;20400;-63
2022/12/01 02:00:43;;;;;;;9.93;5.65;;;6.10;99.90;;;;;;5060617;28;20047;-64
2022/12/01 02:03:12;;;;;;;8.65;5.05;;;6.10;99.90;;;;;;5065893;28;20033;-63
2022/12/01 02:05:39;;;;;;;11.77;5.20;;;6.10;99.90;;;;;;5018038;28;20045;-64
2022/12/01 02:08:11;;;;;;;12.80;6.00;;;6.10;99.90;;;;;;5036884;28;20043;-64
2022/12/01 02:11:01;;;;;;;9.98;5.95;;;6.20;99.90;;;;;;5040377;28;20022;-64
2022/12/01 02:13:40;;;;;;;10.20;6.13;;;6.20;99.90;;;;;;5040036;28;20139;-64
2022/12/01 02:16:09;;;;;;;12.20;6.00;;;6.20;99.90;;;;;;5043460;28;20026;-64
2022/12/01 02:18:55;;;;;;;10.63;5.93;;;6.10;99.90;;;;;;5043834;28;20075;-63
2022/12/01 02:21:35;;;;;;;10.60;6.35;;;6.10;99.90;;;;;;5044203;28;20025;-64
2022/12/01 02:24:30;;;;;;;12.63;6.40;;;6.10;99.90;;;;;;5033144;28;20033;-64
2022/12/01 02:27:03;;;;;;;11.27;6.65;;;6.10;99.90;;;;;;5031254;28;20021;-61
2022/12/01 02:29:48;;;;;;;9.77;5.70;;;6.10;99.90;;;;;;5032599;28;20021;-64
2022/12/01 02:32:32;;;;;;;;;;;6.10;99.90;;;;;;5031037;28;20575;-64
2022/12/01 02:35:28;;;;;;;11.75;5.78;;;6.10;99.90;;;;;;5028862;28;19932;-64
2022/12/01 02:38:06;;;;;;;13.18;7.07;;;6.20;99.90;;;;;;5026373;28;20029;-64
2022/12/01 02:40:53;;;;;;;12.02;6.30;;;6.10;99.90;;;;;;5025848;28;20361;-64
2022/12/01 02:43:31;;;;;;;12.75;6.55;;;6.10;99.90;;;;;;5030544;28;20586;-64
2022/12/01 02:46:36;;;;;;;13.80;6.82;;;6.20;99.90;;;;;;5036268;28;20807;-64
2022/12/01 02:49:12;;;;;;;11.23;5.82;;;6.20;99.90;;;;;;5025492;28;20072;-63
2022/12/01 02:51:40;;;;;;;12.35;6.80;;;6.10;99.90;;;;;;5019108;28;20033;-64
2022/12/01 02:54:07;;;;;;;11.88;6.90;;;6.20;99.90;;;;;;5034937;28;20020;-64
2022/12/01 02:56:33;;;;;;;13.95;6.38;;;6.20;99.90;;;;;;5030325;28;20029;-64
2022/12/01 02:58:58;;;;;;;16.85;6.68;;;6.20;99.90;;;;;;5027783;28;20033;-64
2022/12/01 03:01:42;;;;;;;14.50;7.32;;;6.20;99.90;;;;;;5034858;28;20087;-64
2022/12/01 03:04:37;;;;;;;13.77;6.80;;;6.20;99.90;;;;;;5004553;28;20062;-64
2022/12/01 03:07:28;;;;;;;12.70;6.90;;;6.20;99.90;;;;;;5033307;28;20300;-63
2022/12/01 03:10:06;;;;;;;16.40;7.60;;;6.20;99.90;;;;;;5025384;28;20033;-63
2022/12/01 03:12:38;;;;;;;14.13;7.13;;;6.20;99.90;;;;;;5033266;28;20025;-64
2022/12/01 03:15:17;;;;;;;13.82;7.03;;;6.20;99.90;;;;;;5035614;28;20071;-63
2022/12/01 03:17:58;;;;;;;14.93;8.10;;;6.20;99.90;;;;;;5019628;28;20025;-63
2022/12/01 03:20:33;;;;;;;19.25;8.45;;;6.20;99.90;;;;;;5027415;28;20057;-63
2022/12/01 03:23:07;;;;;;;18.40;8.15;;;6.20;99.90;;;;;;5030236;28;20383;-63
2022/12/01 03:25:33;;;;;;;18.10;8.00;;;6.20;99.90;;;;;;5034588;28;20105;-63
2022/12/01 03:28:01;;;;;;;18.55;8.10;;;6.20;99.90;;;;;;5022672;28;20529;-64
2022/12/01 03:30:30;;;;;;;13.85;6.63;;;6.20;99.90;;;;;;5035131;28;20032;-64
2022/12/01 03:33:03;;;;;;;18.60;8.30;;;6.20;99.90;;;;;;5024271;28;20109;-63
2022/12/01 03:35:40;;;;;;;20.15;8.13;;;6.20;99.90;;;;;;5028519;28;20527;-64
2022/12/01 03:38:18;;;;;;;14.75;8.73;;;6.20;99.90;;;;;;5026917;28;20021;-63
2022/12/01 03:40:47;;;;;;;18.80;8.50;;;6.20;99.90;;;;;;5030588;28;20029;-63
2022/12/01 03:43:22;;;;;;;18.17;7.70;;;6.20;99.90;;;;;;5028622;28;20025;-63
2022/12/01 03:46:06;;;;;;;18.75;8.45;;;6.10;99.90;;;;;;5024139;28;20411;-64
2022/12/01 03:48:32;;;;;;;22.73;9.13;;;6.10;99.90;;;;;;5026718;28;20040;-63
2022/12/01 03:51:10;;;;;;;18.50;8.32;;;6.10;99.90;;;;;;5027826;28;20030;-64
2022/12/01 03:54:06;;;;;;;19.23;9.00;;;6.10;99.90;;;;;;5029517;28;20074;-64
2022/12/01 03:56:54;;;;;;;18.48;9.27;;;6.10;99.90;;;;;;5032934;28;20502;-63
2022/12/01 03:59:23;;;;;;;14.60;8.25;;;6.10;99.90;;;;;;5027512;28;20124;-64
2022/12/01 04:01:49;;;;;;;19.73;9.20;;;6.10;99.90;;;;;;5029138;28;20051;-63
2022/12/01 04:04:15;;;;;;;16.33;7.72;;;6.20;99.90;;;;;;5013281;28;20040;-63
2022/12/01 04:06:44;;;;;;;14.68;8.00;;;6.20;99.90;;;;;;5029732;28;20034;-63
2022/12/01 04:09:10;;;;;;;14.63;7.20;;;6.20;99.90;;;;;;5027047;28;20171;-64
2022/12/01 04:14:20;;;;;;;13.95;7.95;;;6.10;99.90;;;;;;5034036;28;20044;-64
2022/12/01 04:16:46;;;;;;;18.50;8.50;;;6.20;99.90;;;;;;5030459;28;20025;-64
2022/12/01 04:19:11;;;;;;;16.40;8.50;;;6.10;99.90;;;;;;5029296;28;20487;-63
2022/12/01 04:21:37;;;;;;;18.55;8.45;;;6.10;99.90;;;;;;5030440;28;20107;-64
2022/12/01 04:24:02;;;;;;;14.65;7.53;;;6.10;99.90;;;;;;5026828;28;20021;-64
2022/12/01 04:26:31;;;;;;;18.45;8.82;;;6.10;99.90;;;;;;5029617;28;20372;-64
2022/12/01 04:29:00;;;;;;;15.32;7.53;;;6.10;99.90;;;;;;5027035;28;20018;-63
2022/12/01 04:31:26;;;;;;;15.57;8.48;;;6.20;99.90;;;;;;5026271;28;20033;-64
2022/12/01 04:33:54;;;;;;;24.58;9.95;;;6.10;99.90;;;;;;5025220;28;20059;-64
2022/12/01 04:36:20;;;;;;;17.38;8.10;;;6.10;99.90;;;;;;5021662;28;20058;-64
2022/12/01 04:38:45;;;;;;;17.58;8.80;;;6.10;99.90;;;;;;5027088;28;20060;-64
2022/12/01 04:41:12;;;;;;;20.92;9.15;;;6.10;99.90;;;;;;5030780;28;20559;-64
2022/12/01 04:43:38;;;;;;;18.77;9.00;;;6.10;99.90;;;;;;5032137;28;20037;-64
2022/12/01 04:46:05;;;;;;;19.88;9.77;;;6.20;99.90;;;;;;5030993;28;20017;-64
2022/12/01 04:48:31;;;;;;;19.13;9.77;;;6.10;99.90;;;;;;5025896;28;20038;-64
2022/12/01 04:50:57;;;;;;;16.42;8.38;;;6.10;99.90;;;;;;5030070;28;20087;-64
2022/12/01 04:53:22;;;;;;;21.13;9.93;;;6.20;99.90;;;;;;5028922;28;20039;-64
2022/12/01 04:55:48;;;;;;;21.27;10.32;;;6.20;99.90;;;;;;5030276;28;20498;-64
2022/12/01 04:58:14;;;;;;;22.55;10.13;;;6.20;99.90;;;;;;5024556;28;20425;-63
2022/12/01 05:00:39;;;;;;;22.58;10.05;;;6.20;99.90;;;;;;5029745;28;20525;-64
2022/12/01 05:03:05;;;;;;;22.88;10.07;;;6.10;99.90;;;;;;5027202;28;20021;-63
2022/12/01 05:05:30;;;;;;;28.33;12.50;;;6.10;99.90;;;;;;5015930;28;20053;-63
2022/12/01 05:07:58;;;;;;;23.70;10.73;;;6.10;99.90;;;;;;5026862;28;20486;-64
2022/12/01 05:10:24;;;;;;;27.83;11.63;;;6.00;99.90;;;;;;5025367;28;20672;-64
2022/12/01 05:12:50;;;;;;;28.77;13.65;;;6.00;99.90;;;;;;5029022;28;21769;-63
2022/12/01 05:15:16;;;;;;;28.98;12.75;;;5.90;99.90;;;;;;5027749;28;20028;-63
2022/12/01 05:17:41;;;;;;;27.15;12.23;;;6.00;99.90;;;;;;5028252;28;20453;-63
2022/12/01 05:22:58;;;;;;;26.13;12.68;;;6.00;99.90;;;;;;5022644;28;20095;-63
2022/12/01 05:25:23;;;;;;;31.98;12.57;;;6.00;99.90;;;;;;5026955;28;20458;-62
2022/12/01 05:27:49;;;;;;;36.60;12.85;;;5.90;99.90;;;;;;5030360;28;20049;-63
2022/12/01 05:30:15;;;;;;;28.70;13.38;;;5.90;99.90;;;;;;5026098;28;20041;-65
2022/12/01 05:32:40;;;;;;;28.10;11.98;;;5.90;99.90;;;;;;5024994;28;20041;-63
2022/12/01 05:35:07;;;;;;;25.20;12.50;;;5.90;99.90;;;;;;5030938;28;20029;-63
2022/12/01 05:37:33;;;;;;;26.60;12.10;;;5.90;99.90;;;;;;5025622;28;20025;-62
2022/12/01 05:39:59;;;;;;;26.45;13.05;;;5.90;99.90;;;;;;5024157;28;20687;-63
2022/12/01 05:42:25;;;;;;;26.38;12.55;;;5.90;99.90;;;;;;5027673;28;20037;-62
2022/12/01 05:44:51;;;;;;;26.77;12.15;;;5.80;99.90;;;;;;5032858;28;20029;-62
2022/12/01 05:47:16;;;;;;;28.00;12.20;;;5.80;99.90;;;;;;5026851;28;20083;-63
2022/12/01 05:49:42;;;;;;;27.42;12.75;;;5.70;99.90;;;;;;5026074;28;20122;-63
2022/12/01 05:52:07;;;;;;;26.63;13.07;;;5.70;99.90;;;;;;5030571;28;20036;-63
2022/12/01 05:54:33;;;;;;;29.63;12.20;;;5.70;99.90;;;;;;5029293;28;20030;-63
2022/12/01 05:56:58;;;;;;;31.17;14.45;;;5.80;99.90;;;;;;5026032;28;20057;-65
2022/12/01 05:59:24;;;;;;;29.05;12.80;;;5.80;99.90;;;;;;5030540;28;20026;-63
2022/12/01 06:01:50;;;;;;;26.15;12.35;;;5.80;99.90;;;;;;5030497;28;20865;-65
2022/12/01 06:04:15;;;;;;;28.88;13.75;;;5.80;99.90;;;;;;5029075;28;20445;-63
2022/12/01 06:06:41;;;;;;;27.77;12.25;;;5.80;99.90;;;;;;5014459;28;20414;-63
2022/12/01 06:09:07;;;;;;;23.80;11.95;;;5.80;99.90;;;;;;5031976;28;20049;-63
2022/12/01 06:11:32;;;;;;;25.45;12.88;;;5.80;99.90;;;;;;5030178;28;20029;-65
2022/12/01 06:13:58;;;;;;;27.60;12.02;;;5.90;99.90;;;;;;5036779;28;20107;-61
2022/12/01 06:16:23;;;;;;;29.73;13.00;;;5.90;99.90;;;;;;5032296;28;20065;-65
2022/12/01 06:18:49;;;;;;;24.40;12.52;;;5.90;99.90;;;;;;5032432;28;20387;-63
2022/12/01 06:21:15;;;;;;;23.23;12.50;;;5.90;99.90;;;;;;5027712;28;20156;-63
2022/12/01 06:23:40;;;;;;;29.58;13.98;;;5.80;99.90;;;;;;5026963;28;20037;-62
2022/12/01 06:26:06;;;;;;;24.35;12.98;;;5.80;99.90;;;;;;5029248;28;20029;-62
2022/12/01 06:28:31;;;;;;;33.28;14.38;;;5.70;99.90;;;;;;5029156;28;21204;-63
2022/12/01 06:30:57;;;;;;;28.48;13.32;;;5.70;99.90;;;;;;5031347;28;20018;-63
2022/12/01 06:33:23;;;;;;;32.88;13.90;;;5.70;99.90;;;;;;5030617;28;20112;-63
2022/12/01 06:35:55;;;;;;;30.15;13.02;;;5.60;99.90;;;;;;5027744;28;20022;-63
2022/12/01 06:38:21;;;;;;;40.65;17.08;;;5.60;99.90;;;;;;5027732;28;20047;-62
2022/12/01 06:40:46;;;;;;;36.38;15.20;;;5.60;99.90;;;;;;5034072;28;20108;-62
2022/12/01 06:43:12;;;;;;;34.80;16.55;;;5.60;99.90;;;;;;5029771;28;20056;-63
2022/12/01 06:45:37;;;;;;;37.70;16.67;;;5.60;99.90;;;;;;5037918;28;20555;-63
2022/12/01 06:48:03;;;;;;;36.45;14.68;;;5.50;99.90;;;;;;5033256;28;20029;-63
2022/12/01 06:50:28;;;;;;;41.78;18.83;;;5.50;99.90;;;;;;5032905;28;20029;-63
2022/12/01 06:52:54;;;;;;;34.05;15.23;;;5.40;99.90;;;;;;5031990;28;20399;-63
2022/12/01 06:55:20;;;;;;;39.05;14.75;;;5.40;99.90;;;;;;5031048;28;20026;-58
2022/12/01 06:57:45;;;;;;;32.22;14.98;;;5.50;99.90;;;;;;5030915;28;20029;-62
2022/12/01 07:00:12;;;;;;;38.22;15.82;;;5.50;99.90;;;;;;5028282;28;20494;-63
2022/12/01 07:02:38;;;;;;;29.08;12.38;;;5.50;99.90;;;;;;5027994;28;20430;-65
2022/12/01 07:05:03;;;;;;;33.15;12.70;;;5.50;99.90;;;;;;5011912;28;20045;-63
2022/12/01 07:07:29;;;;;;;31.33;12.00;;;5.60;99.90;;;;;;5025616;28;20030;-63
2022/12/01 07:09:55;;;;;;;32.97;13.50;;;5.50;99.90;;;;;;5029868;28;20112;-62
2022/12/01 07:12:20;;;;;;;27.13;12.73;;;5.50;99.90;;;;;;5028666;28;20026;-63
2022/12/01 07:14:46;;;;;;;33.20;12.65;;;5.60;99.90;;;;;;5028129;28;20065;-63
2022/12/01 07:17:11;;;;;;;30.67;14.23;;;5.70;99.90;;;;;;5029000;28;20030;-63
2022/12/01 07:19:37;;;;;;;36.15;13.50;;;5.70;99.90;;;;;;5029572;28;20387;-65
2022/12/01 07:22:03;;;;;;;27.40;12.48;;;5.70;99.90;;;;;;5034113;28;20055;-65
2022/12/01 07:24:29;;;;;;;35.70;13.38;;;5.70;99.90;;;;;;5027332;28;20108;-64
2022/12/01 07:26:55;;;;;;;31.60;12.48;;;5.70;99.90;;;;;;5036433;28;20029;-64
2022/12/01 07:29:20;;;;;;;34.17;14.20;;;5.80;99.90;;;;;;5027199;28;20091;-62
2022/12/01 07:31:46;;;;;;;34.78;13.07;;;5.90;99.90;;;;;;5029878;28;20717;-65
2022/12/01 07:34:14;;;;;;;36.10;13.55;;;5.90;99.90;;;;;;5029642;28;20032;-65
2022/12/01 07:36:40;;;;;;;30.95;12.25;;;5.90;99.90;;;;;;5022173;28;20099;-65
2022/12/01 07:39:07;;;;;;;29.48;13.88;;;5.90;99.90;;;;;;5029348;28;20422;-65
2022/12/01 07:41:34;;;;;;;36.80;13.50;;;5.90;99.90;;;;;;5030436;28;20763;-65
2022/12/01 07:44:00;;;;;;;40.60;13.75;;;5.90;99.90;;;;;;5029132;28;20031;-65
2022/12/01 07:46:26;;;;;;;31.15;11.70;;;5.90;99.90;;;;;;5028031;28;20116;-64
2022/12/01 07:48:53;;;;;;;30.75;13.10;;;5.90;99.90;;;;;;5027231;28;20038;-63
2022/12/01 07:51:20;;;;;;;27.80;11.05;;;5.90;99.90;;;;;;5028176;28;20068;-63
2022/12/01 07:53:48;;;;;;;30.20;11.93;;;6.00;99.90;;;;;;5025639;28;20033;-63
2022/12/01 07:56:14;;;;;;;30.70;11.23;;;6.00;99.90;;;;;;5025288;28;20479;-63
2022/12/01 07:58:40;;;;;;;31.50;13.63;;;5.90;99.90;;;;;;5029142;28;20032;-63
2022/12/01 08:01:14;;;;;;;29.33;12.20;;;5.90;99.90;;;;;;5029688;28;20034;-64
2022/12/01 08:03:40;;;;;;;24.50;11.80;;;5.90;99.90;;;;;;5030410;28;20075;-63
2022/12/01 08:06:06;;;;;;;26.65;12.13;;;5.90;99.90;;;;;;5007764;28;20045;-64
2022/12/01 08:08:34;;;;;;;26.98;11.82;;;5.90;99.90;;;;;;5035097;28;20487;-62
2022/12/01 08:11:02;;;;;;;29.08;11.13;;;5.90;99.90;;;;;;5025301;28;20424;-63
2022/12/01 08:13:28;;;;;;;24.73;11.35;;;6.00;99.90;;;;;;5024472;28;20079;-62
2022/12/01 08:15:53;;;;;;;24.50;11.32;;;6.00;99.90;;;;;;5029102;28;20488;-63
2022/12/01 08:18:19;;;;;;;24.25;11.48;;;6.00;99.90;;;;;;5028770;28;20032;-64
2022/12/01 08:20:44;;;;;;;28.90;12.15;;;6.10;99.90;;;;;;5025494;28;20029;-63
2022/12/01 08:23:10;;;;;;;23.88;11.02;;;6.10;99.90;;;;;;5024445;28;20041;-63
2022/12/01 08:25:35;;;;;;;23.02;10.10;;;6.10;99.90;;;;;;5022004;28;20041;-63
2022/12/01 08:28:01;;;;;;;22.15;9.90;;;6.10;99.90;;;;;;5027637;28;20121;-63
2022/12/01 08:30:27;;;;;;;25.48;10.00;;;6.10;99.90;;;;;;5028766;28;20479;-63
2022/12/01 08:32:54;;;;;;;30.05;9.50;;;6.10;99.90;;;;;;5029449;28;20087;-63
2022/12/01 08:35:20;;;;;;;17.95;8.63;;;6.10;99.90;;;;;;5022253;28;20029;-61
2022/12/01 08:37:45;;;;;;;19.83;8.88;;;6.20;99.90;;;;;;5025315;28;20824;-63
2022/12/01 08:40:11;;;;;;;15.57;8.68;;;6.20;99.90;;;;;;5024123;28;20539;-63
2022/12/01 08:42:37;;;;;;;22.02;11.10;;;6.20;99.90;;;;;;5031822;28;20411;-63
2022/12/01 08:45:04;;;;;;;18.77;9.25;;;6.10;99.90;;;;;;5030244;28;20502;-63
2022/12/01 08:47:29;;;;;;;19.80;9.60;;;6.20;99.90;;;;;;5029755;28;20036;-63
2022/12/01 08:49:55;;;;;;;19.55;9.73;;;6.20;99.90;;;;;;5029274;28;20061;-63
2022/12/01 08:52:21;;;;;;;19.70;8.55;;;6.20;99.90;;;;;;5025937;28;20590;-64
2022/12/01 08:54:46;;;;;;;20.85;9.57;;;6.20;99.90;;;;;;5023429;28;20495;-63
2022/12/01 08:57:12;;;;;;;18.08;9.38;;;6.20;99.90;;;;;;5027780;28;20017;-64
2022/12/01 08:59:38;;;;;;;18.02;8.65;;;6.20;99.90;;;;;;5027389;28;20033;-63
2022/12/01 09:02:04;;;;;;;18.17;8.55;;;6.20;99.90;;;;;;5028967;28;20037;-63
2022/12/01 09:04:29;;;;;;;17.58;8.73;;;6.20;99.90;;;;;;5027218;28;20026;-63
2022/12/01 09:06:56;;;;;;;20.02;8.15;;;6.10;99.90;;;;;;5006944;28;20059;-63
2022/12/01 09:09:25;;;;;;;16.20;8.00;;;6.10;99.90;;;;;;5029272;28;20100;-62
2022/12/01 09:11:51;;;;;;;15.45;7.78;;;6.10;99.90;;;;;;5027758;28;20052;-63
2022/12/01 09:14:18;;;;;;;18.63;8.95;;;6.20;99.90;;;;;;5029001;28;20168;-63
2022/12/01 09:16:46;;;;;;;15.93;6.95;;;6.10;99.90;;;;;;5031725;28;20113;-63
2022/12/01 09:19:12;;;;;;;17.90;8.05;;;6.10;99.90;;;;;;5026798;28;20025;-63
2022/12/01 09:21:38;;;;;;;14.63;7.20;;;6.10;99.90;;;;;;5024667;28;20029;-63
2022/12/01 09:24:06;;;;;;;19.67;7.18;;;6.10;99.90;;;;;;5026202;28;20037;-63
2022/12/01 09:26:32;;;;;;;17.05;7.85;;;6.20;99.90;;;;;;5032239;28;20043;-63
2022/12/01 09:29:01;;;;;;;17.77;7.82;;;6.20;99.90;;;;;;5023649;28;20033;-63
2022/12/01 09:31:27;;;;;;;14.68;7.20;;;6.30;99.90;;;;;;5026614;28;20033;-63
2022/12/01 09:33:55;;;;;;;14.43;8.10;;;6.30;99.90;;;;;;5029086;28;20511;-63
2022/12/01 09:36:20;;;;;;;16.60;8.15;;;6.40;99.90;;;;;;5025534;28;20028;-63
2022/12/01 09:38:46;;;;;;;13.40;7.50;;;6.40;99.90;;;;;;5033105;28;20092;-63
2022/12/01 09:41:18;;;;;;;15.00;7.32;;;6.40;99.90;;;;;;5030632;28;20037;-63
2022/12/01 09:44:19;;;;;;;17.83;7.72;;;6.40;99.90;;;;;;5028035;28;20107;-63
2022/12/01 09:46:51;;;;;;;13.45;6.45;;;6.40;99.90;;;;;;5034382;28;20055;-63
2022/12/01 09:49:34;;;;;;;12.43;7.40;;;6.40;99.90;;;;;;5034952;28;20409;-63
2022/12/01 09:52:00;;;;;;;13.07;6.40;;;6.40;99.90;;;;;;5023242;28;20078;-63
2022/12/01 09:54:27;;;;;;;14.40;6.97;;;6.50;99.90;;;;;;5022823;28;20057;-64
2022/12/01 09:56:54;;;;;;;15.43;7.80;;;6.50;99.90;;;;;;5022389;28;20026;-64
2022/12/01 09:59:25;;;;;;;19.52;6.90;;;6.50;99.90;;;;;;5029575;28;20164;-64
2022/12/01 10:01:58;;;;;;;13.30;5.78;;;6.50;99.90;;;;;;5021215;28;20442;-64
2022/12/01 10:04:47;;;;;;;13.27;6.95;;;6.50;99.90;;;;;;5031817;28;20107;-63
2022/12/01 10:07:12;;;;;;;8.20;4.88;;;6.50;99.90;;;;;;5015768;28;20048;-63
2022/12/01 10:09:58;;;;;;;11.82;6.35;;;6.50;99.90;;;;;;5028281;28;20025;-64
2022/12/01 10:12:28;;;;;;;12.07;5.97;;;6.40;99.90;;;;;;5043102;28;20223;-63
2022/12/01 10:15:31;;;;;;;12.13;5.75;;;6.40;99.90;;;;;;5032836;28;20049;-64
2022/12/01 10:18:02;;;;;;;14.93;6.53;;;6.50;99.90;;;;;;5026532;28;20113;-63
2022/12/01 10:20:45;;;;;;;13.30;6.63;;;6.50;99.90;;;;;;5033718;28;20033;-63
2022/12/01 10:23:10;;;;;;;10.43;6.43;;;6.50;99.90;;;;;;5034124;28;20037;-63
2022/12/01 10:25:57;;;;;;;15.90;7.95;;;6.60;99.90;;;;;;5037698;28;20036;-63
2022/12/01 10:28:22;;;;;;;12.88;6.38;;;6.60;99.90;;;;;;5029678;28;20060;-64
2022/12/01 10:30:50;;;;;;;11.80;5.22;;;6.60;99.90;;;;;;5033162;28;20064;-64
2022/12/01 10:33:24;;;;;;;12.60;5.95;;;6.60;99.90;;;;;;5029736;28;20394;-64
2022/12/01 10:35:51;;;;;;;15.73;6.72;;;6.70;99.90;;;;;;5025493;28;20470;-64
2022/12/01 10:38:37;;;;;;;16.88;6.78;;;6.70;99.90;;;;;;5027613;28;20087;-64
2022/12/01 10:41:04;;;;;;;13.65;6.97;;;6.70;99.90;;;;;;5033082;28;20014;-64
2022/12/01 10:43:43;;;;;;;13.52;6.22;;;6.70;99.90;;;;;;5030744;28;20025;-63
2022/12/01 10:46:36;;;;;;;12.98;6.82;;;6.70;99.90;;;;;;5035220;28;20045;-63
2022/12/01 10:49:33;;;;;;;12.73;6.85;;;6.60;99.90;;;;;;5021402;28;20041;-65
2022/12/01 10:51:59;;;;;;;15.18;7.63;;;6.60;99.90;;;;;;5029294;28;20048;-64
2022/12/01 10:54:39;;;;;;;14.93;6.85;;;6.60;99.90;;;;;;5032436;28;20022;-64
2022/12/01 10:57:06;;;;;;;16.33;6.93;;;6.60;99.90;;;;;;5031159;28;20036;-64
2022/12/01 10:59:47;;;;;;;15.07;7.63;;;6.60;99.90;;;;;;5029430;28;20407;-64
2022/12/01 11:02:21;;;;;;;16.38;6.70;;;6.50;99.90;;;;;;5023064;28;20115;-63
2022/12/01 11:04:58;;;;;;;12.70;6.68;;;6.50;99.90;;;;;;5030693;28;20035;-64
2022/12/01 11:07:46;;;;;;;13.48;8.05;;;6.50;99.90;;;;;;5009627;28;20529;-63
2022/12/01 11:10:31;;;;;;;19.52;9.20;;;6.50;99.90;;;;;;5029907;28;20045;-65
2022/12/01 11:12:56;;;;;;;19.30;8.80;;;6.50;99.90;;;;;;5030795;28;20059;-63
2022/12/01 11:15:27;;;;;;;20.23;9.75;;;6.50;99.90;;;;;;5022067;28;20033;-61
2022/12/01 11:18:05;;;;;;;16.02;8.90;;;6.50;99.90;;;;;;5029690;28;20021;-64
2022/12/01 11:20:36;;;;;;;18.83;10.18;;;6.70;99.90;;;;;;5028542;28;20033;-64
2022/12/01 11:23:17;;;;;;;19.67;9.27;;;6.80;99.90;;;;;;5024987;28;20056;-64
2022/12/01 11:26:01;;;;;;;22.10;9.70;;;6.90;99.90;;;;;;5034982;28;20033;-63
2022/12/01 11:28:27;;;;;;;17.58;8.60;;;6.80;99.90;;;;;;5031191;28;20038;-64
2022/12/01 11:31:00;;;;;;;20.40;9.75;;;6.80;99.90;;;;;;5031915;28;20044;-63
2022/12/01 11:33:27;;;;;;;17.60;9.70;;;6.90;99.90;;;;;;5025448;28;20491;-63
2022/12/01 11:35:53;;;;;;;18.20;8.82;;;6.90;99.90;;;;;;5029918;28;20068;-64
2022/12/01 11:38:22;;;;;;;21.58;10.23;;;7.00;99.90;;;;;;5030986;28;20037;-64
2022/12/01 11:40:51;;;;;;;19.73;9.73;;;7.20;99.90;;;;;;5030119;28;20033;-64
2022/12/01 11:43:37;;;;;;;14.85;8.20;;;7.30;99.90;;;;;;5031477;28;20084;-64
2022/12/01 11:46:08;;;;;;;19.25;9.07;;;7.40;99.90;;;;;;5025334;28;20112;-63
2022/12/01 11:48:35;;;;;;;20.38;9.55;;;7.40;99.90;;;;;;5028619;28;20036;-64
2022/12/01 11:51:18;;;;;;;21.45;9.93;;;7.30;99.90;;;;;;5019097;28;20037;-64
2022/12/01 11:53:44;;;;;;;18.63;8.82;;;7.20;99.90;;;;;;5027788;28;20033;-64
2022/12/01 11:56:22;;;;;;;21.30;10.07;;;7.10;99.90;;;;;;5014973;28;20022;-64
2022/12/01 11:58:49;;;;;;;19.65;9.05;;;7.20;99.90;;;;;;5026354;28;20163;-65
2022/12/01 12:01:44;;;;;;;26.02;11.73;;;7.10;99.90;;;;;;5026288;28;20491;-64
2022/12/01 12:04:44;;;;;;;27.40;11.18;;;7.10;99.90;;;;;;5024530;28;20028;-64
2022/12/01 12:07:39;;;;;;;26.35;12.10;;;7.00;99.90;;;;;;5019734;28;20036;-64
2022/12/01 12:10:32;;;;;;;29.63;12.38;;;7.00;99.90;;;;;;5023108;28;20087;-64
2022/12/01 12:13:04;;;;;;;30.08;11.80;;;6.90;99.90;;;;;;5030234;28;20110;-64
2022/12/01 12:15:35;;;;;;;22.75;12.13;;;6.80;99.90;;;;;;5026927;28;20380;-63
2022/12/01 12:18:19;;;;;;;29.65;11.90;;;6.80;99.90;;;;;;5027584;28;20029;-64
2022/12/01 12:21:11;;;;;;;25.47;11.83;;;6.70;99.90;;;;;;5024063;28;20049;-64
2022/12/01 12:24:05;;;;;;;27.02;12.55;;;6.70;99.90;;;;;;5027382;28;20025;-64
2022/12/01 12:26:39;;;;;;;26.90;13.48;;;6.70;99.90;;;;;;5026265;28;20038;-64
2022/12/01 12:29:04;;;;;;;;;;;6.60;99.90;;;;;;5026989;28;20032;-64
2022/12/01 12:31:36;;;;;;;30.08;13.82;;;6.70;99.90;;;;;;5019335;28;20297;-64
2022/12/01 12:34:11;;;;;;;30.55;13.05;;;6.80;99.90;;;;;;5018356;28;20403;-64
2022/12/01 12:36:49;;;;;;;38.55;15.60;;;6.80;99.90;;;;;;5022803;28;20053;-64
2022/12/01 12:39:17;;;;;;;32.35;13.98;;;6.70;99.90;;;;;;5025033;28;20022;-63
2022/12/01 12:41:53;;;;;;;31.00;14.93;;;6.70;99.90;;;;;;5023251;28;20021;-64
2022/12/01 12:44:42;;;;;;;33.53;15.07;;;6.60;99.90;;;;;;5024180;28;20021;-63
2022/12/01 12:47:29;;;;;;;35.63;17.35;;;6.50;99.90;;;;;;5025492;28;20080;-64
2022/12/01 12:50:05;;;;;;;34.92;14.73;;;6.40;99.90;;;;;;5023436;28;20085;-63
2022/12/01 12:52:44;;;;;;;39.33;15.40;;;6.30;99.90;;;;;;5025887;28;20041;-64
2022/12/01 12:55:26;;;;;;;36.65;14.57;;;6.20;99.90;;;;;;5028066;28;20045;-64
2022/12/01 12:58:25;;;;;;;34.58;15.95;;;6.20;99.90;;;;;;5025101;28;20041;-64
2022/12/01 13:00:59;;;;;;;42.20;16.55;;;6.10;99.90;;;;;;5026816;28;20057;-63
2022/12/01 13:03:29;;;;;;;44.22;17.27;;;6.10;99.90;;;;;;5023409;28;20045;-63
2022/12/01 13:06:05;;;;;;;41.00;16.65;;;6.10;99.90;;;;;;5028769;28;20519;-63
2022/12/01 13:08:40;;;;;;;43.47;17.80;;;6.10;99.90;;;;;;5026252;28;20029;-64